Time;durP1;ratioP1;P1;durP2;ratioP2;P2;SDS_P1;SDS_P2;PMS_P1;PMS_P2;Temp;Humidity;BMP_temperature;BMP_pressure;BME280_temperature;BME280_humidity;BME280_pressure;Samples;Min_cycle;Max_cycle;Signal;HPM_P1;HPM_P2
2021/10/10 00:00:34;;;;;;;71.75;38.15;;;;;;;1.20;85.18;100289.98;2119083;83;21561;-86
2021/10/10 00:03:37;;;;;;;74.30;37.48;;;;;;;1.17;84.90;100279.34;2141628;83;21607;-86
2021/10/10 00:06:38;;;;;;;62.25;36.05;;;;;;;1.12;84.80;100280.06;2142959;83;20958;-86
2021/10/10 00:09:38;;;;;;;73.57;37.23;;;;;;;1.09;84.96;100279.73;2118938;83;21557;-87
2021/10/10 00:12:39;;;;;;;76.05;39.15;;;;;;;1.07;84.88;100280.28;2117365;83;21534;-86
2021/10/10 00:15:40;;;;;;;64.90;36.53;;;;;;;1.06;84.94;100276.05;2112515;84;20977;-86
2021/10/10 00:18:41;;;;;;;68.62;37.17;;;;;;;1.03;84.90;100275.39;2109566;83;21081;-87
2021/10/10 00:21:42;;;;;;;75.10;35.83;;;;;;;0.98;84.95;100274.78;2114327;83;21439;-87
2021/10/10 00:24:43;;;;;;;67.47;34.95;;;;;;;0.96;84.96;100280.48;2115259;83;21565;-87
2021/10/10 00:27:43;;;;;;;67.87;35.33;;;;;;;0.94;85.05;100272.83;2109625;83;20994;-87
2021/10/10 00:30:44;;;;;;;66.00;35.98;;;;;;;0.92;84.83;100278.53;2113385;83;21012;-86
2021/10/10 00:33:45;;;;;;;63.10;35.17;;;;;;;0.92;84.93;100275.95;2132733;83;21026;-88
2021/10/10 00:36:46;;;;;;;48.25;27.10;;;;;;;0.89;84.93;100270.94;2153233;83;20971;-87
2021/10/10 00:39:47;;;;;;;70.47;37.80;;;;;;;0.84;85.64;100275.52;2124778;82;21038;-86
2021/10/10 00:42:47;;;;;;;63.08;35.10;;;;;;;0.76;85.22;100275.08;2099588;83;21085;-88
2021/10/10 00:45:48;;;;;;;63.02;35.05;;;;;;;0.74;85.42;100271.30;2117637;83;21585;-86
2021/10/10 00:48:49;;;;;;;61.08;35.03;;;;;;;0.71;85.43;100267.56;2116488;84;20982;-87
2021/10/10 00:51:50;;;;;;;76.07;39.40;;;;;;;0.71;85.52;100269.31;2109825;83;20986;-86
2021/10/10 00:54:51;;;;;;;82.92;40.67;;;;;;;0.72;85.21;100273.09;2110205;83;20997;-87
2021/10/10 00:57:51;;;;;;;81.82;38.38;;;;;;;0.71;85.17;100263.70;2109605;84;20947;-84
2021/10/10 01:00:52;;;;;;;74.58;37.10;;;;;;;0.66;85.05;100264.41;2113331;83;21049;-87
2021/10/10 01:03:53;;;;;;;72.78;37.63;;;;;;;0.65;85.12;100270.94;2117141;84;20998;-85
2021/10/10 01:06:54;;;;;;;73.78;38.45;;;;;;;0.62;85.08;100264.17;2116470;84;21069;-85
2021/10/10 01:09:55;;;;;;;72.42;37.30;;;;;;;0.58;85.03;100262.68;2120666;84;20956;-85
2021/10/10 01:12:55;;;;;;;71.17;35.68;;;;;;;0.56;84.97;100265.34;2107434;83;21022;-85
2021/10/10 01:15:56;;;;;;;75.80;36.77;;;;;;;0.54;84.95;100265.84;2107342;83;21651;-83
2021/10/10 01:18:57;;;;;;;73.50;38.35;;;;;;;0.51;84.99;100263.89;2107502;83;21054;-85
2021/10/10 01:21:58;;;;;;;65.55;36.10;;;;;;;0.48;84.94;100261.03;2116198;83;21019;-85
2021/10/10 01:24:59;;;;;;;75.08;39.08;;;;;;;0.45;84.92;100254.72;2116383;83;21041;-86
2021/10/10 01:27:59;;;;;;;82.92;42.33;;;;;;;0.38;84.58;100257.25;2116204;83;21034;-85
2021/10/10 01:31:00;;;;;;;81.82;40.92;;;;;;;0.33;84.91;100251.48;2122173;83;21577;-86
2021/10/10 01:34:01;;;;;;;79.07;45.78;;;;;;;0.27;85.00;100252.64;2126658;84;21053;-86
2021/10/10 01:37:02;;;;;;;74.35;41.48;;;;;;;0.21;85.06;100251.66;2126683;83;21034;-86
2021/10/10 01:40:03;;;;;;;78.57;43.10;;;;;;;0.18;85.41;100242.80;2124674;84;21569;-85
2021/10/10 01:43:03;;;;;;;76.28;40.05;;;;;;;0.19;85.49;100251.36;2126840;84;20947;-85
2021/10/10 01:46:04;;;;;;;67.78;37.93;;;;;;;0.17;85.24;100251.87;2125540;84;21267;-85
2021/10/10 01:49:05;;;;;;;75.47;39.33;;;;;;;0.15;85.05;100247.25;2126825;83;21048;-85
2021/10/10 01:52:06;;;;;;;72.05;41.73;;;;;;;0.14;85.03;100252.86;2126147;83;20978;-85
2021/10/10 01:55:09;;;;;;;65.35;38.10;;;;;;;0.13;85.84;100249.08;2119195;84;21059;-85
2021/10/10 01:58:10;;;;;;;69.27;38.73;;;;;;;0.08;85.98;100252.32;2120407;84;21316;-86
2021/10/10 02:01:11;;;;;;;70.75;39.98;;;;;;;-0.01;85.69;100249.28;2123129;84;21509;-85
2021/10/10 02:04:12;;;;;;;57.33;31.57;;;;;;;-0.03;85.85;100241.27;2116445;83;21505;-85
2021/10/10 02:07:13;;;;;;;67.75;36.38;;;;;;;-0.03;86.65;100242.55;2113633;83;21072;-85
2021/10/10 02:10:13;;;;;;;61.58;32.93;;;;;;;-0.03;86.56;100242.55;2133636;83;21498;-83
2021/10/10 02:13:14;;;;;;;49.77;28.62;;;;;;;-0.05;87.12;100246.95;2142897;83;21037;-85
2021/10/10 02:16:15;;;;;;;45.90;26.73;;;;;;;-0.07;87.64;100246.20;2142729;83;21044;-85
2021/10/10 02:19:16;;;;;;;47.80;26.75;;;;;;;-0.11;88.15;100239.52;2141754;83;21557;-85
2021/10/10 02:22:16;;;;;;;46.48;27.65;;;;;;;-0.16;87.93;100241.50;2137647;83;20990;-85
2021/10/10 02:25:17;;;;;;;53.68;31.17;;;;;;;-0.21;88.28;100232.70;2135977;83;20989;-85
2021/10/10 02:28:18;;;;;;;50.00;27.93;;;;;;;-0.24;88.35;100232.02;2140394;83;21068;-85
2021/10/10 02:31:19;;;;;;;45.73;29.05;;;;;;;-0.26;88.45;100229.53;2142209;83;21476;-85
2021/10/10 02:34:20;;;;;;;53.63;30.25;;;;;;;-0.27;88.52;100222.72;2141680;83;21022;-86
2021/10/10 02:37:20;;;;;;;49.45;29.37;;;;;;;-0.31;88.61;100218.15;2141690;83;21013;-85
2021/10/10 02:40:21;;;;;;;48.25;29.85;;;;;;;-0.28;88.71;100221.02;2141674;83;21001;-85
2021/10/10 02:43:22;;;;;;;61.92;31.37;;;;;;;-0.27;88.80;100228.29;2142841;83;21025;-85
2021/10/10 02:46:23;;;;;;;59.03;33.15;;;;;;;-0.25;88.92;100220.89;2142997;83;21028;-85
2021/10/10 02:49:23;;;;;;;55.17;30.72;;;;;;;-0.21;88.71;100218.99;2142986;83;21002;-85
2021/10/10 02:52:25;;;;;;;57.58;31.68;;;;;;;-0.18;88.81;100217.13;2142014;83;20984;-85
2021/10/10 02:55:26;;;;;;;65.83;33.33;;;;;;;-0.18;88.99;100214.55;2141533;83;21077;-85
2021/10/10 02:58:27;;;;;;;84.60;40.88;;;;;;;-0.19;89.29;100213.31;2141723;83;21461;-85
2021/10/10 03:01:28;;;;;;;62.13;34.55;;;;;;;-0.24;89.64;100208.86;2141672;83;20997;-85
2021/10/10 03:04:29;;;;;;;51.02;30.95;;;;;;;-0.25;89.89;100213.17;2139738;83;21001;-85
2021/10/10 03:07:29;;;;;;;53.08;30.20;;;;;;;-0.31;90.21;100209.59;2136050;83;20974;-86
2021/10/10 03:10:30;;;;;;;64.07;33.60;;;;;;;-0.40;89.91;100209.59;2100682;83;21624;-85
2021/10/10 03:13:31;;;;;;;52.33;33.45;;;;;;;-0.43;90.37;100208.91;2117103;84;21017;-85
2021/10/10 03:16:32;;;;;;;52.48;30.82;;;;;;;-0.46;91.20;100207.30;2117285;84;21009;-85
2021/10/10 03:19:33;;;;;;;40.40;22.50;;;;;;;-0.46;91.35;100208.58;2117208;84;20986;-85
2021/10/10 03:22:33;;;;;;;38.10;22.82;;;;;;;-0.45;93.02;100212.85;2111909;84;21430;-85
2021/10/10 03:25:34;;;;;;;57.62;30.82;;;;;;;-0.48;92.80;100211.69;2146771;82;21017;-85
2021/10/10 03:28:35;;;;;;;51.48;27.50;;;;;;;-0.52;92.96;100208.06;2131440;83;21029;-84
2021/10/10 03:31:36;;;;;;;46.70;26.75;;;;;;;-0.53;93.05;100209.80;2103561;84;21057;-85
2021/10/10 03:34:37;;;;;;;52.65;30.23;;;;;;;-0.54;93.17;100208.14;2089687;85;21564;-88
2021/10/10 03:37:37;;;;;;;50.23;30.80;;;;;;;-0.53;93.48;100199.97;2171251;82;20910;-86
2021/10/10 03:40:38;;;;;;;50.05;28.75;;;;;;;-0.53;93.56;100199.52;2172556;81;21025;-85
2021/10/10 03:43:39;;;;;;;55.40;33.15;;;;;;;-0.51;93.73;100202.84;2209321;81;20989;-85
2021/10/10 03:46:40;;;;;;;54.85;33.92;;;;;;;-0.50;93.73;100199.81;2204641;80;20993;-85
2021/10/10 03:49:41;;;;;;;60.75;33.63;;;;;;;-0.50;93.46;100205.79;2163266;82;21092;-88
2021/10/10 03:52:42;;;;;;;50.65;30.88;;;;;;;-0.47;93.34;100195.34;2138494;82;20942;-87
2021/10/10 03:55:43;;;;;;;50.65;31.00;;;;;;;-0.45;93.61;100191.43;2171260;81;20970;-85
2021/10/10 03:58:44;;;;;;;52.10;32.38;;;;;;;-0.45;93.50;100190.14;2170790;81;21038;-86
2021/10/10 04:01:44;;;;;;;48.25;29.72;;;;;;;-0.41;93.56;100190.36;2168543;81;20992;-86
2021/10/10 04:04:45;;;;;;;60.17;31.62;;;;;;;-0.40;93.61;100185.59;2119153;83;21022;-84
2021/10/10 04:07:46;;;;;;;67.55;41.37;;;;;;;-0.43;93.93;100190.90;2088910;84;21169;-87
2021/10/10 04:10:47;;;;;;;98.72;65.47;;;;;;;-0.45;94.07;100184.55;2163268;82;21595;-85
2021/10/10 04:13:48;;;;;;;86.95;58.02;;;;;;;-0.45;94.41;100182.42;2171269;81;21061;-85
2021/10/10 04:16:48;;;;;;;71.65;46.98;;;;;;;-0.47;94.26;100177.78;2170859;81;21577;-86
2021/10/10 04:19:49;;;;;;;87.12;55.35;;;;;;;-0.42;94.18;100171.97;2171306;81;20971;-88
2021/10/10 04:22:50;;;;;;;72.58;49.15;;;;;;;-0.38;94.38;100167.04;2166074;81;21006;-87
2021/10/10 04:25:51;;;;;;;70.57;45.75;;;;;;;-0.35;94.25;100168.20;2163387;82;20989;-87
2021/10/10 04:28:52;;;;;;;74.10;46.45;;;;;;;-0.32;94.24;100169.33;2124853;84;21535;-87
2021/10/10 04:31:52;;;;;;;79.62;49.63;;;;;;;-0.31;94.18;100167.95;2168602;81;21009;-87
2021/10/10 04:34:53;;;;;;;75.55;47.65;;;;;;;-0.33;93.77;100165.92;2163297;82;21040;-87
2021/10/10 04:37:54;;;;;;;73.95;48.58;;;;;;;-0.32;93.78;100155.16;2163615;82;20958;-86
2021/10/10 04:40:55;;;;;;;81.42;46.73;;;;;;;-0.33;93.55;100158.66;2163630;82;21031;-86
2021/10/10 04:43:55;;;;;;;80.07;48.98;;;;;;;-0.35;93.56;100151.02;2171322;81;21018;-86
2021/10/10 04:46:57;;;;;;;54.00;33.83;;;;;;;-0.34;93.70;100151.84;2169011;82;21024;-87
2021/10/10 04:49:58;;;;;;;49.05;26.02;;;;;;;-0.35;94.10;100156.16;2163484;82;21485;-86
2021/10/10 04:52:59;;;;;;;42.40;22.85;;;;;;;-0.33;94.49;100154.34;2163462;82;21005;-87
2021/10/10 04:56:00;;;;;;;42.23;24.87;;;;;;;-0.30;94.57;100148.20;2119285;84;21485;-86
2021/10/10 04:59:00;;;;;;;46.23;27.37;;;;;;;-0.30;94.54;100153.34;2107589;84;21144;-87
2021/10/10 05:02:01;;;;;;;46.05;27.07;;;;;;;-0.29;94.30;100148.57;2170239;82;20912;-86
2021/10/10 05:05:02;;;;;;;50.20;30.88;;;;;;;-0.25;94.53;100150.56;2165014;81;20988;-87
2021/10/10 05:08:03;;;;;;;54.70;32.95;;;;;;;-0.18;94.73;100153.18;2163491;82;21045;-87
2021/10/10 05:11:04;;;;;;;53.90;35.88;;;;;;;-0.11;94.23;100160.98;2176447;82;20990;-87
2021/10/10 05:14:05;;;;;;;77.03;46.55;;;;;;;-0.09;93.85;100153.58;2181158;82;21065;-87
2021/10/10 05:17:06;;;;;;;105.95;64.70;;;;;;;-0.07;93.56;100159.48;2181015;81;20957;-88
2021/10/10 05:20:07;;;;;;;81.05;47.08;;;;;;;-0.08;93.60;100162.97;2180076;81;21048;-89
2021/10/10 05:23:10;;;;;;;72.42;43.48;;;;;;;-0.03;93.00;100162.27;2173931;82;21460;-88
2021/10/10 05:26:11;;;;;;;68.97;38.95;;;;;;;0.03;92.77;100158.56;2173949;82;20958;-89
2021/10/10 05:29:12;;;;;;;58.02;34.65;;;;;;;0.10;92.82;100159.92;2173147;82;21069;-87
2021/10/10 05:32:13;;;;;;;58.78;34.43;;;;;;;0.13;92.95;100157.17;2134670;83;21049;-88
2021/10/10 05:35:14;;;;;;;57.35;34.67;;;;;;;0.19;92.74;100159.45;2181159;81;21045;-88
2021/10/10 05:38:15;;;;;;;69.67;41.00;;;;;;;0.28;92.92;100155.11;2180594;81;21061;-88
2021/10/10 05:41:16;;;;;;;65.37;40.43;;;;;;;0.38;92.57;100159.33;2177162;82;21013;-89
2021/10/10 05:44:16;;;;;;;51.70;30.68;;;;;;;0.50;92.66;100154.81;2173702;82;21016;-88
2021/10/10 05:47:17;;;;;;;56.15;32.83;;;;;;;0.61;92.44;100165.02;2180077;82;20966;-88
2021/10/10 05:50:18;;;;;;;52.25;30.62;;;;;;;0.69;92.42;100157.25;2181328;81;20958;-88
2021/10/10 05:53:19;;;;;;;40.00;23.67;;;;;;;0.78;92.16;100159.33;2181334;82;21001;-87
2021/10/10 05:56:19;;;;;;;46.30;26.50;;;;;;;0.88;92.04;100154.51;2176927;81;20985;-86
2021/10/10 05:59:21;;;;;;;43.48;25.77;;;;;;;0.92;91.90;100160.35;2173352;82;21001;-89
2021/10/10 06:02:22;;;;;;;41.98;23.92;;;;;;;1.00;91.75;100161.56;2173199;82;21476;-94
2021/10/10 06:05:23;;;;;;;41.53;24.63;;;;;;;1.09;91.79;100161.53;2173257;82;20989;-93
2021/10/10 06:08:24;;;;;;;58.48;33.67;;;;;;;1.14;91.85;100158.25;2129473;83;21536;-95
2021/10/10 06:11:25;;;;;;;101.35;57.98;;;;;;;1.25;92.17;100161.52;2086477;85;21070;-91
2021/10/10 06:14:28;;;;;;;91.22;51.28;;;;;;;1.41;92.08;100162.33;2086060;84;20991;-88
2021/10/10 06:17:28;;;;;;;98.87;54.03;;;;;;;1.59;91.78;100158.72;2085831;85;21078;-86
2021/10/10 06:20:29;;;;;;;103.05;56.83;;;;;;;1.81;91.57;100163.92;2086031;84;21561;-89
2021/10/10 06:23:30;;;;;;;80.67;49.90;;;;;;;2.01;91.48;100162.30;2086334;84;20987;-82
2021/10/10 06:26:30;;;;;;;53.10;35.43;;;;;;;2.14;90.63;100165.84;2085780;85;21008;-89
2021/10/10 06:29:31;;;;;;;57.53;34.53;;;;;;;2.23;90.26;100160.13;2086458;84;21490;-88
2021/10/10 06:32:32;;;;;;;42.03;26.75;;;;;;;2.37;90.19;100170.09;2086084;85;20983;-93
2021/10/10 06:35:33;;;;;;;55.45;35.38;;;;;;;2.46;89.77;100165.19;2085966;85;21570;-86
2021/10/10 06:38:33;;;;;;;48.17;29.42;;;;;;;2.58;89.69;100157.64;2085779;84;21090;-86
2021/10/10 06:41:34;;;;;;;52.70;30.48;;;;;;;2.67;89.43;100156.61;2085374;84;21082;-87
2021/10/10 06:44:36;;;;;;;53.02;30.57;;;;;;;2.84;89.62;100158.99;2163253;82;21038;-88
2021/10/10 06:47:40;;;;;;;52.27;33.10;;;;;;;3.02;89.40;100154.42;2141216;82;21060;-84
2021/10/10 06:50:40;;;;;;;42.73;26.42;;;;;;;3.18;89.09;100151.67;2163615;82;21476;-85
2021/10/10 06:53:41;;;;;;;47.30;28.60;;;;;;;3.32;88.18;100153.40;2118869;83;21054;-85
2021/10/10 06:56:42;;;;;;;42.45;27.02;;;;;;;3.47;88.46;100156.27;2088023;85;20971;-85
2021/10/10 06:59:43;;;;;;;40.50;26.87;;;;;;;3.62;87.99;100155.28;2163654;82;21485;-83
2021/10/10 07:02:47;;;;;;;44.15;28.00;;;;;;;3.75;87.90;100154.47;2163329;82;21025;-83
2021/10/10 07:05:48;;;;;;;52.65;30.17;;;;;;;3.91;88.05;100153.83;2163354;82;21564;-85
2021/10/10 07:08:48;;;;;;;50.95;31.35;;;;;;;4.08;87.29;100153.53;2163356;82;21061;-84
2021/10/10 07:11:49;;;;;;;52.50;30.32;;;;;;;4.23;86.81;100146.50;2131552;83;21089;-84
2021/10/10 07:14:51;;;;;;;49.20;28.30;;;;;;;4.42;86.33;100153.84;2100122;85;21015;-85
2021/10/10 07:17:59;;;;;;;40.80;27.15;;;;;;;4.58;85.90;100146.67;2175613;82;21571;-84
2021/10/10 07:21:17;;;;;;;40.08;24.07;;;;;;;4.76;85.79;100145.39;2174842;82;21033;-85
2021/10/10 07:27:11;;;;;;;46.20;27.93;;;;;;;5.08;84.50;100150.05;2131238;83;21032;-85
2021/10/10 07:30:11;;;;;;;34.83;24.98;;;;;;;5.24;84.15;100144.12;2099541;85;20990;-85
2021/10/10 07:33:15;;;;;;;38.65;23.67;;;;;;;5.39;82.77;100140.88;2175593;81;21095;-85
2021/10/10 07:36:15;;;;;;;40.58;25.35;;;;;;;5.50;82.72;100135.74;2175576;82;21084;-85
2021/10/10 07:39:16;;;;;;;37.75;18.52;;;;;;;5.70;82.84;100144.19;2175659;82;20996;-85
2021/10/10 07:42:16;;;;;;;32.10;19.07;;;;;;;5.87;81.65;100146.84;2175858;82;21091;-85
2021/10/10 07:45:23;;;;;;;23.30;13.88;;;;;;;6.04;81.36;100148.21;2175428;82;20997;-85
2021/10/10 07:48:25;;;;;;;24.52;14.20;;;;;;;6.20;77.46;100146.55;2146332;82;21052;-85
2021/10/10 07:51:28;;;;;;;28.32;14.30;;;;;;;6.39;78.34;100145.50;2130786;83;20970;-85
2021/10/10 07:54:28;;;;;;;22.42;11.97;;;;;;;6.66;76.78;100143.02;2099610;85;21566;-86
2021/10/10 07:57:29;;;;;;;17.57;11.25;;;;;;;6.88;74.91;100138.27;2175910;81;21064;-85
2021/10/10 08:00:30;;;;;;;18.20;10.88;;;;;;;7.07;72.83;100143.19;2175897;82;21529;-86
2021/10/10 08:03:31;;;;;;;18.48;9.83;;;;;;;7.28;73.41;100136.73;2175765;82;21053;-85
2021/10/10 08:06:32;;;;;;;14.28;9.30;;;;;;;7.49;69.93;100139.84;2175602;82;21081;-84
2021/10/10 08:09:36;;;;;;;15.18;8.45;;;;;;;7.75;66.02;100130.70;2175263;82;21078;-79
2021/10/10 08:12:37;;;;;;;13.05;7.92;;;;;;;7.95;65.81;100139.03;2173184;82;21028;-84
2021/10/10 08:15:37;;;;;;;16.02;7.58;;;;;;;8.18;63.87;100137.56;2172879;82;20986;-85
2021/10/10 08:18:41;;;;;;;16.30;8.58;;;;;;;8.38;61.39;100134.59;2172880;82;21041;-87
2021/10/10 08:24:45;;;;;;;19.55;8.20;;;;;;;8.72;59.16;100131.22;2052300;86;21631;-88
2021/10/10 08:27:46;;;;;;;11.80;7.75;;;;;;;8.91;62.15;100126.52;2053153;87;21503;-84
2021/10/10 08:30:49;;;;;;;16.32;8.08;;;;;;;9.05;57.65;100137.88;2053616;87;21584;-83
2021/10/10 08:33:49;;;;;;;16.97;8.18;;;;;;;9.19;56.51;100132.27;2053012;87;21145;-82
2021/10/10 08:36:50;;;;;;;11.85;7.90;;;;;;;9.33;57.00;100124.04;2053152;87;21005;-84
2021/10/10 08:39:51;;;;;;;13.10;7.03;;;;;;;9.43;50.52;100121.42;2053389;87;20997;-82
2021/10/10 08:42:54;;;;;;;12.85;7.30;;;;;;;9.56;54.24;100117.20;2053489;87;20982;-82
2021/10/10 08:45:55;;;;;;;11.65;7.40;;;;;;;9.64;52.08;100118.66;2053322;87;21374;-82
2021/10/10 08:48:55;;;;;;;16.37;8.48;;;;;;;9.69;51.46;100121.66;2053376;87;21088;-82
2021/10/10 08:51:59;;;;;;;11.57;7.83;;;;;;;9.76;49.69;100121.93;2053322;87;20982;-83
2021/10/10 08:55:00;;;;;;;15.72;6.90;;;;;;;9.86;49.26;100113.09;2053285;87;21001;-83
2021/10/10 08:58:01;;;;;;;12.95;5.65;;;;;;;9.90;46.13;100111.05;2053430;87;21069;-85
2021/10/10 09:01:06;;;;;;;14.45;6.40;;;;;;;9.93;45.52;100129.06;2053361;87;20970;-84
2021/10/10 09:04:04;;;;;;;10.05;5.62;;;;;;;9.98;46.11;100115.09;2053208;87;21140;-84
2021/10/10 09:07:05;;;;;;;15.53;6.10;;;;;;;10.02;43.29;100112.52;2053264;87;20986;-83
2021/10/10 09:10:06;;;;;;;10.35;6.05;;;;;;;10.04;43.10;100110.58;2055215;86;21078;-84
2021/10/10 09:13:09;;;;;;;12.00;6.40;;;;;;;10.06;43.43;100109.13;2063512;86;21082;-87
2021/10/10 09:16:10;;;;;;;10.43;6.30;;;;;;;10.15;44.95;100102.58;2061819;86;21062;-84
2021/10/10 09:22:15;;;;;;;9.03;5.42;;;;;;;10.30;43.27;100106.05;2006322;88;21065;-86
2021/10/10 09:25:17;;;;;;;14.00;5.85;;;;;;;10.33;40.25;100095.28;2011274;88;21013;-84
2021/10/10 09:28:18;;;;;;;14.05;5.90;;;;;;;10.38;41.08;100093.89;2021876;86;21092;-83
2021/10/10 09:31:19;;;;;;;9.68;5.37;;;;;;;10.40;40.91;100089.81;2026182;88;21034;-83
2021/10/10 09:34:20;;;;;;;9.65;5.65;;;;;;;10.43;41.49;100094.78;2026372;88;21043;-89
2021/10/10 09:37:23;;;;;;;11.43;5.12;;;;;;;10.47;42.15;100092.20;2026756;88;21042;-83
2021/10/10 09:40:26;;;;;;;13.35;5.03;;;;;;;10.54;40.10;100088.86;2026329;88;21089;-83
2021/10/10 09:43:27;;;;;;;9.83;5.37;;;;;;;10.59;40.36;100095.44;2026523;88;21109;-84
2021/10/10 09:46:28;;;;;;;12.73;5.75;;;;;;;10.62;40.05;100095.99;2026671;88;21627;-85
2021/10/10 09:49:30;;;;;;;8.43;5.45;;;;;;;10.71;40.99;100086.43;2026595;88;21125;-81
2021/10/10 09:52:32;;;;;;;9.63;5.28;;;;;;;10.72;40.09;100086.28;2026042;88;21158;-88
2021/10/10 09:55:32;;;;;;;9.73;6.10;;;;;;;10.76;39.20;100081.07;2026485;88;21034;-83
2021/10/10 09:58:33;;;;;;;12.47;8.23;;;;;;;10.86;39.55;100086.73;2026575;88;21010;-84
2021/10/10 10:01:34;;;;;;;15.75;7.17;;;;;;;10.98;40.47;100082.95;2026517;88;21033;-86
2021/10/10 10:04:35;;;;;;;9.48;5.85;;;;;;;10.98;38.89;100082.47;2026560;88;21006;-87
2021/10/10 10:07:39;;;;;;;10.43;6.47;;;;;;;11.02;39.95;100072.01;2006479;88;21054;-87
2021/10/10 10:10:39;;;;;;;8.23;5.05;;;;;;;11.02;38.82;100077.25;1999356;88;21110;-84
2021/10/10 10:13:39;;;;;;;14.40;7.17;;;;;;;11.06;37.63;100090.87;1996565;89;21094;-84
2021/10/10 10:16:40;;;;;;;13.05;6.40;;;;;;;11.04;38.76;100078.41;1996730;89;21606;-85
2021/10/10 10:19:41;;;;;;;11.12;5.78;;;;;;;11.10;39.12;100077.81;1996810;89;21153;-86
2021/10/10 10:22:42;;;;;;;10.53;6.50;;;;;;;11.21;38.90;100068.89;1996840;89;20987;-85
2021/10/10 10:25:43;;;;;;;12.75;7.10;;;;;;;11.28;38.96;100064.22;2094888;83;21059;-85
2021/10/10 10:28:44;;;;;;;15.43;6.22;;;;;;;11.24;38.78;100066.78;2141716;83;20969;-86
2021/10/10 10:31:45;;;;;;;18.75;6.62;;;;;;;11.34;37.78;100074.59;2141217;83;21052;-84
2021/10/10 10:34:46;;;;;;;11.83;6.35;;;;;;;11.35;37.50;100069.69;2141751;83;21041;-85
2021/10/10 10:37:47;;;;;;;7.12;4.42;;;;;;;11.36;37.64;100060.84;2143441;83;21076;-83
2021/10/10 10:40:48;;;;;;;10.98;5.83;;;;;;;11.33;37.14;100072.92;2142449;83;21458;-85
2021/10/10 10:43:48;;;;;;;8.15;5.00;;;;;;;11.35;37.15;100058.70;2141531;83;21016;-85
2021/10/10 10:46:49;;;;;;;7.58;4.80;;;;;;;11.39;37.72;100052.17;2141779;83;21063;-84
2021/10/10 10:49:51;;;;;;;7.45;6.25;;;;;;;11.37;36.44;100054.62;2141710;83;21032;-85
2021/10/10 10:52:51;;;;;;;8.30;4.45;;;;;;;11.39;37.54;100048.73;2141569;83;21518;-84
2021/10/10 10:55:52;;;;;;;7.58;4.75;;;;;;;11.45;37.05;100045.50;2141644;83;21275;-84
2021/10/10 10:58:57;;;;;;;7.92;5.45;;;;;;;11.49;37.25;100052.56;2141575;83;21040;-85
2021/10/10 11:01:56;;;;;;;7.12;5.25;;;;;;;11.56;37.64;100049.67;2141318;83;21544;-85
2021/10/10 11:04:57;;;;;;;7.58;4.47;;;;;;;11.61;37.85;100044.77;2141602;83;21009;-84
2021/10/10 11:07:58;;;;;;;6.33;5.05;;;;;;;11.73;37.54;100034.38;2141521;83;20989;-86
2021/10/10 11:10:59;;;;;;;6.42;5.00;;;;;;;11.74;37.75;100041.27;2139041;83;21529;-84
2021/10/10 11:14:02;;;;;;;6.75;4.65;;;;;;;11.82;38.20;100043.16;2134933;83;20977;-85
2021/10/10 11:17:03;;;;;;;10.28;6.53;;;;;;;11.82;37.07;100040.53;2135007;83;21579;-85
2021/10/10 11:20:03;;;;;;;9.88;5.80;;;;;;;11.76;37.03;100037.17;2134619;83;20977;-84
2021/10/10 11:23:04;;;;;;;8.93;5.45;;;;;;;11.72;37.70;100030.11;2134971;83;21400;-85
2021/10/10 11:26:05;;;;;;;8.85;5.08;;;;;;;11.66;35.07;100041.22;2134714;83;21016;-85
2021/10/10 11:29:07;;;;;;;8.43;5.42;;;;;;;11.60;36.01;100029.52;2134896;83;21592;-85
2021/10/10 11:32:08;;;;;;;8.43;5.60;;;;;;;11.62;35.70;100029.40;2202628;81;21539;-85
2021/10/10 11:35:09;;;;;;;10.75;5.03;;;;;;;11.67;36.38;100031.05;2202737;81;21012;-86
2021/10/10 11:38:14;;;;;;;5.80;5.03;;;;;;;11.72;35.84;100022.73;2202501;81;20934;-86
2021/10/10 11:41:15;;;;;;;16.05;5.92;;;;;;;11.75;35.95;100019.30;2202874;81;21500;-88
2021/10/10 11:44:18;;;;;;;13.58;5.20;;;;;;;11.74;36.02;100017.66;2202894;80;21048;-87
2021/10/10 11:47:19;;;;;;;8.08;4.37;;;;;;;11.75;35.51;100017.16;2203108;81;21030;-87
2021/10/10 11:50:19;;;;;;;9.60;5.55;;;;;;;11.72;35.73;100010.92;2202900;81;20985;-84
2021/10/10 11:53:23;;;;;;;7.22;5.12;;;;;;;11.68;35.73;100008.59;2183726;81;21005;-86
2021/10/10 11:56:24;;;;;;;10.45;6.08;;;;;;;11.66;35.09;99997.92;2203110;81;21001;-86
2021/10/10 11:59:24;;;;;;;6.92;4.67;;;;;;;11.68;34.99;100011.22;2203056;81;21088;-86
2021/10/10 12:02:25;;;;;;;6.97;5.03;;;;;;;11.76;36.27;99989.95;2203078;81;21072;-85
2021/10/10 12:05:27;;;;;;;8.23;5.10;;;;;;;11.85;36.57;99987.73;2203090;81;20981;-85
2021/10/10 12:08:28;;;;;;;9.83;4.10;;;;;;;11.90;36.21;99976.28;2202782;81;21473;-86
2021/10/10 12:11:31;;;;;;;9.68;4.55;;;;;;;11.90;34.27;99995.97;2202722;80;21052;-86
2021/10/10 12:14:32;;;;;;;8.43;4.83;;;;;;;11.92;35.19;99984.81;2203004;81;21493;-86
2021/10/10 12:17:33;;;;;;;5.17;4.35;;;;;;;11.94;34.53;99974.97;2203099;81;21053;-85
2021/10/10 12:20:34;;;;;;;6.85;3.83;;;;;;;11.95;35.39;99973.50;2203009;81;20965;-85
2021/10/10 12:23:38;;;;;;;6.00;3.90;;;;;;;11.91;34.11;99978.75;2202995;81;20970;-85
2021/10/10 12:26:38;;;;;;;7.80;4.30;;;;;;;11.89;33.76;99982.52;2203137;80;20973;-86
2021/10/10 12:29:39;;;;;;;10.48;4.30;;;;;;;11.92;35.03;99969.06;2203302;81;21020;-85
2021/10/10 12:32:40;;;;;;;7.22;4.47;;;;;;;11.93;35.00;99959.72;2203130;81;21515;-85
2021/10/10 12:35:40;;;;;;;9.23;4.70;;;;;;;11.98;34.79;99950.53;2203184;81;21566;-87
2021/10/10 12:38:41;;;;;;;6.87;4.62;;;;;;;12.03;34.21;99956.14;2183531;81;21048;-86
2021/10/10 12:41:42;;;;;;;7.00;4.28;;;;;;;12.10;34.96;99950.11;2203352;81;20965;-86
2021/10/10 12:44:43;;;;;;;6.28;4.67;;;;;;;12.13;34.83;99947.15;2203063;81;21104;-85
2021/10/10 12:47:44;;;;;;;8.20;3.95;;;;;;;12.21;34.63;99953.74;2203131;81;20989;-86
2021/10/10 12:50:45;;;;;;;7.78;4.05;;;;;;;12.17;33.15;99948.49;2203064;81;21076;-86
2021/10/10 12:53:46;;;;;;;7.92;4.20;;;;;;;12.17;33.15;99948.49;2204816;81;21493;-84
2021/10/10 12:56:47;;;;;;;7.08;4.75;;;;;;;12.20;33.77;99948.16;2204051;81;21012;-85
2021/10/10 12:59:47;;;;;;;9.58;4.42;;;;;;;12.22;34.52;99946.19;2202748;81;21018;-86
2021/10/10 13:02:54;;;;;;;8.28;3.92;;;;;;;12.27;34.54;99938.34;2202953;81;22118;-85
2021/10/10 13:05:55;;;;;;;8.30;4.40;;;;;;;12.29;33.82;99937.69;2202958;81;21064;-85
2021/10/10 13:08:56;;;;;;;8.30;4.25;;;;;;;12.36;34.61;99945.26;2202785;81;20992;-86
2021/10/10 13:11:57;;;;;;;5.42;3.75;;;;;;;12.40;33.57;99936.88;2202579;80;21112;-85
2021/10/10 13:15:00;;;;;;;6.92;3.37;;;;;;;12.41;33.38;99930.64;2202863;81;20961;-85
2021/10/10 13:18:00;;;;;;;5.42;3.58;;;;;;;12.44;32.96;99930.34;2203262;81;20981;-85
2021/10/10 13:21:02;;;;;;;7.15;4.30;;;;;;;12.43;32.95;99926.04;2202996;81;21052;-85
2021/10/10 13:24:03;;;;;;;6.28;3.98;;;;;;;12.38;33.40;99932.28;2203055;81;21492;-86
2021/10/10 13:27:04;;;;;;;6.08;4.28;;;;;;;12.40;33.80;99924.23;2203013;81;20993;-85
2021/10/10 13:30:05;;;;;;;8.78;4.83;;;;;;;12.43;34.11;99927.35;2203052;81;21099;-85
2021/10/10 13:33:06;;;;;;;9.78;5.25;;;;;;;12.48;34.17;99924.25;2202950;81;21036;-86
2021/10/10 13:36:06;;;;;;;7.33;4.40;;;;;;;12.56;34.63;99915.07;2203093;81;21488;-86
2021/10/10 13:39:07;;;;;;;9.30;4.60;;;;;;;12.62;34.65;99921.46;2203014;81;21040;-85
2021/10/10 13:42:08;;;;;;;9.03;4.40;;;;;;;12.61;34.41;99921.14;2202994;81;20926;-86
2021/10/10 13:45:09;;;;;;;15.03;4.15;;;;;;;12.48;34.66;99921.13;2202955;80;21068;-85
2021/10/10 13:48:10;;;;;;;9.58;4.58;;;;;;;12.46;35.16;99924.42;2202664;81;21021;-85
2021/10/10 13:51:11;;;;;;;5.78;3.47;;;;;;;12.47;34.73;99922.13;2202978;81;21060;-85
2021/10/10 13:54:12;;;;;;;6.42;4.03;;;;;;;12.38;34.18;99923.09;2203028;81;20957;-85
2021/10/10 13:57:13;;;;;;;9.75;4.42;;;;;;;12.34;34.86;99920.44;2203180;81;20992;-85
2021/10/10 14:00:14;;;;;;;6.00;3.98;;;;;;;12.26;34.80;99921.77;2203239;81;20942;-85
2021/10/10 14:03:14;;;;;;;6.30;3.62;;;;;;;12.21;34.64;99913.53;2203362;81;21068;-86